Time;durP1;ratioP1;P1;durP2;ratioP2;P2;SDS_P1;SDS_P2;PMS_P1;PMS_P2;Temp;Humidity;BMP_temperature;BMP_pressure;BME280_temperature;BME280_humidity;BME280_pressure;Samples;Min_cycle;Max_cycle;Signal;HPM_P1;HPM_P2
2021/01/31 00:00:48;;;;;;;76.33;44.23;;;;;;;2.90;65.82;98395.19;5086188;28;20028;-80
2021/01/31 00:03:24;;;;;;;71.33;43.13;;;;;;;3.71;66.00;98534.53;5094308;22;20040;-78
2021/01/31 00:05:52;;;;;;;75.23;44.97;;;;;;;3.76;66.31;98547.97;5065058;28;20118;-77
2021/01/31 00:08:21;;;;;;;80.97;45.03;;;;;;;3.79;66.26;98550.25;5101293;22;20104;-77
2021/01/31 00:10:47;;;;;;;81.03;48.60;;;;;;;3.60;65.98;98521.78;5105054;28;20116;-78
2021/01/31 00:13:15;;;;;;;81.37;48.27;;;;;;;3.71;65.99;98544.97;5086170;28;20024;-79
2021/01/31 00:15:44;;;;;;;80.80;47.47;;;;;;;3.54;66.35;98500.72;5088258;22;20060;-79
2021/01/31 00:18:11;;;;;;;83.03;45.87;;;;;;;3.74;65.86;98536.84;5065113;28;20067;-77
2021/01/31 00:20:38;;;;;;;81.10;48.50;;;;;;;3.45;65.93;98485.03;5049862;28;20032;-78
2021/01/31 00:23:06;;;;;;;82.53;48.60;;;;;;;3.85;66.29;98555.81;5088531;22;20446;-78
2021/01/31 00:25:32;;;;;;;92.00;54.73;;;;;;;3.86;66.26;98554.84;5069251;28;20032;-78
2021/01/31 00:27:59;;;;;;;90.50;53.30;;;;;;;3.74;65.94;98536.03;5107436;28;20341;-79
2021/01/31 00:30:33;;;;;;;97.40;55.33;;;;;;;3.55;66.10;98508.41;5089443;28;20097;-77
2021/01/31 00:32:59;;;;;;;90.90;50.93;;;;;;;3.26;65.74;98455.78;5089441;28;20020;-79
2021/01/31 00:35:28;;;;;;;83.67;47.00;;;;;;;3.87;66.43;98556.47;5106390;28;20020;-77
2021/01/31 00:37:55;;;;;;;87.53;49.43;;;;;;;3.89;65.96;98559.75;5088991;28;20024;-78
2021/01/31 00:40:23;;;;;;;89.67;49.30;;;;;;;3.88;65.65;98560.72;5107993;28;20418;-77
2021/01/31 00:42:50;;;;;;;79.93;45.30;;;;;;;3.69;66.14;98544.31;5094574;22;20423;-77
2021/01/31 00:45:20;;;;;;;75.10;43.63;;;;;;;3.79;66.17;98557.28;5121520;22;20056;-77
2021/01/31 00:47:46;;;;;;;78.00;45.00;;;;;;;3.85;66.06;98574.09;5096462;22;20056;-78
2021/01/31 00:50:15;;;;;;;70.37;42.07;;;;;;;3.84;66.36;98575.88;5089778;28;20040;-78
2021/01/31 00:52:45;;;;;;;70.77;41.40;;;;;;;3.38;65.89;98494.47;5100634;22;20043;-80
2021/01/31 00:57:42;;;;;;;74.13;39.50;;;;;;;3.60;65.88;98532.22;5104891;28;20067;-78
2021/01/31 01:00:30;;;;;;;72.27;39.73;;;;;;;3.89;65.68;98583.25;5113231;22;20051;-79
2021/01/31 01:02:57;;;;;;;68.93;37.57;;;;;;;3.91;65.65;98582.09;5114542;22;20044;-80
2021/01/31 01:05:25;;;;;;;62.13;36.33;;;;;;;3.91;65.60;98582.09;5114531;22;20127;-77
2021/01/31 01:07:53;;;;;;;64.57;38.43;;;;;;;3.61;65.88;98523.41;5096856;22;20063;-78
2021/01/31 01:10:25;;;;;;;68.43;38.90;;;;;;;3.91;66.01;98578.69;5087998;28;20063;-77
2021/01/31 01:12:51;;;;;;;67.00;38.10;;;;;;;3.92;65.99;98569.88;5085026;28;20028;-77
2021/01/31 01:15:18;;;;;;;67.63;38.83;;;;;;;3.95;66.05;98569.53;5086312;28;20151;-79
2021/01/31 01:17:44;;;;;;;67.50;38.47;;;;;;;3.96;65.64;98576.41;5089215;22;20056;-79
2021/01/31 01:20:14;;;;;;;69.83;38.77;;;;;;;3.66;65.68;98528.97;5114079;22;20424;-80
2021/01/31 01:22:40;;;;;;;68.77;38.33;;;;;;;3.67;66.16;98535.00;5106427;28;20083;-77
2021/01/31 01:25:07;;;;;;;68.90;38.97;;;;;;;3.72;65.76;98551.03;5143751;22;20093;-77
2021/01/31 01:27:33;;;;;;;64.27;36.97;;;;;;;3.83;66.11;98577.69;5110928;28;20028;-77
2021/01/31 01:29:59;;;;;;;68.93;38.50;;;;;;;3.72;65.61;98564.91;5108484;28;20542;-78
2021/01/31 01:32:28;;;;;;;64.93;39.37;;;;;;;3.81;65.98;98568.38;5107887;28;20080;-79
2021/01/31 01:34:56;;;;;;;65.63;38.97;;;;;;;3.31;65.85;98493.47;5122717;22;20070;-77
2021/01/31 01:37:22;;;;;;;70.73;38.93;;;;;;;3.75;65.96;98566.41;5113652;22;20036;-78
2021/01/31 01:39:47;;;;;;;68.70;39.87;;;;;;;3.29;66.31;98500.66;5071575;28;20086;-78
2021/01/31 01:42:14;;;;;;;64.07;37.93;;;;;;;3.29;66.25;98499.81;5106375;28;20051;-79
2021/01/31 01:44:44;;;;;;;64.03;37.77;;;;;;;3.73;66.27;98574.38;5106888;28;20020;-79
2021/01/31 01:47:26;;;;;;;74.13;38.40;;;;;;;2.75;66.31;98410.59;5107548;28;20115;-79
2021/01/31 01:50:02;;;;;;;64.60;35.57;;;;;;;3.62;66.09;98545.94;5107866;28;20036;-79
2021/01/31 01:52:47;;;;;;;59.43;34.13;;;;;;;3.73;66.17;98576.19;5107872;28;20028;-79
2021/01/31 01:55:18;;;;;;;65.63;36.40;;;;;;;3.73;66.03;98571.78;5115377;22;20040;-77
2021/01/31 01:58:04;;;;;;;65.00;35.13;;;;;;;3.56;66.41;98546.56;5107263;28;20024;-77
2021/01/31 02:00:32;;;;;;;59.83;36.93;;;;;;;3.23;66.35;98498.66;5109002;28;20024;-79
2021/01/31 02:03:10;;;;;;;63.40;37.93;;;;;;;3.67;66.41;98574.97;5114262;22;20040;-79
2021/01/31 02:05:37;;;;;;;66.30;40.63;;;;;;;3.56;66.34;98553.56;5114966;22;20044;-80
2021/01/31 02:08:04;;;;;;;72.73;41.07;;;;;;;3.62;66.22;98572.03;5107541;28;20047;-80
2021/01/31 02:10:30;;;;;;;78.63;44.57;;;;;;;3.16;66.33;98503.69;5105026;28;20025;-78
2021/01/31 02:13:03;;;;;;;87.37;48.17;;;;;;;3.48;66.66;98568.22;5086596;28;20028;-78
2021/01/31 02:15:29;;;;;;;81.07;45.87;;;;;;;3.61;66.40;98585.25;5086791;28;20031;-79
2021/01/31 02:18:17;;;;;;;93.77;53.13;;;;;;;3.62;66.72;98587.69;5086435;28;20040;-79
2021/01/31 02:21:14;;;;;;;78.07;47.07;;;;;;;3.55;66.33;98578.84;5100525;22;20063;-79
2021/01/31 02:24:11;;;;;;;85.67;48.33;;;;;;;3.57;66.40;98547.38;5094863;28;20036;-78
2021/01/31 02:27:03;;;;;;;87.70;49.60;;;;;;;3.53;66.70;98546.88;5109150;28;20445;-79
2021/01/31 02:29:48;;;;;;;89.78;51.83;;;;;;;3.53;66.63;98551.28;5090138;28;20034;-80
2021/01/31 02:35:13;;;;;;;83.47;46.43;;;;;;;3.53;66.75;98536.44;3685206;22;20066;-79
2021/01/31 02:38:06;;;;;;;78.63;41.03;;;;;;;3.51;66.85;98539.22;5114458;22;20054;-78
2021/01/31 02:40:50;;;;;;;77.53;43.00;;;;;;;3.46;66.46;98540.66;5108169;28;20024;-81
2021/01/31 02:43:27;;;;;;;78.07;43.40;;;;;;;3.48;66.60;98549.16;5118010;22;20036;-81
2021/01/31 02:46:00;;;;;;;74.73;43.57;;;;;;;2.87;66.71;98451.88;5095225;28;20095;-78
2021/01/31 02:49:02;;;;;;;72.07;42.93;;;;;;;3.22;66.48;98498.81;5111852;28;20093;-78
2021/01/31 02:51:36;;;;;;;71.20;42.83;;;;;;;3.18;67.00;98512.19;5095229;28;20036;-79
2021/01/31 02:54:24;;;;;;;70.53;40.90;;;;;;;2.80;66.98;98476.94;5112811;28;20024;-80
2021/01/31 02:57:00;;;;;;;72.37;39.80;;;;;;;3.46;66.58;98545.88;5095007;28;20042;-79
2021/01/31 02:59:38;;;;;;;73.40;40.67;;;;;;;3.47;66.53;98560.56;5111641;28;20023;-80
2021/01/31 03:02:15;;;;;;;70.03;38.53;;;;;;;3.47;66.99;98566.59;5172153;22;20048;-78
2021/01/31 03:05:00;;;;;;;69.73;40.70;;;;;;;3.37;66.64;98562.47;5111409;28;20035;-81
2021/01/31 03:07:37;;;;;;;72.37;42.00;;;;;;;3.26;66.97;98563.56;5110507;28;20050;-77
2021/01/31 03:10:13;;;;;;;87.93;48.40;;;;;;;3.13;67.29;98524.88;5108666;28;20023;-80
2021/01/31 03:13:25;;;;;;;86.70;48.93;;;;;;;3.54;67.09;98574.59;5089925;28;20032;-79
2021/01/31 03:18:41;;;;;;;84.17;50.97;;;;;;;3.53;66.37;98569.53;5049693;26;20054;-80
2021/01/31 03:21:16;;;;;;;83.07;48.73;;;;;;;3.52;66.73;98560.91;5107532;22;20044;-79
2021/01/31 03:24:22;;;;;;;77.53;48.07;;;;;;;3.38;66.58;98546.66;5083998;22;20051;-80
2021/01/31 03:27:05;;;;;;;83.93;48.47;;;;;;;3.33;66.88;98533.28;5068838;22;20089;-79
2021/01/31 03:29:31;;;;;;;80.97;48.73;;;;;;;2.96;66.52;98476.19;5091837;28;20028;-79
2021/01/31 03:32:07;;;;;;;81.00;47.37;;;;;;;3.49;67.01;98550.78;5104143;22;20044;-81
2021/01/31 03:34:47;;;;;;;70.50;43.10;;;;;;;3.46;66.86;98549.31;5091659;28;20028;-79
2021/01/31 03:39:48;;;;;;;59.13;35.73;;;;;;;3.47;66.23;98547.50;5130669;28;20066;-78
2021/01/31 03:42:14;;;;;;;55.73;31.07;;;;;;;2.74;65.87;98435.84;5133553;28;20039;-80
2021/01/31 03:44:43;;;;;;;60.93;34.80;;;;;;;3.38;65.99;98538.00;5126206;22;20128;-84
2021/01/31 03:49:55;;;;;;;42.72;26.08;;;;;;;3.21;66.06;98529.31;4336207;26;20047;-80
2021/01/31 03:52:23;;;;;;;50.27;28.67;;;;;;;2.66;65.61;98437.59;5096748;28;20028;-79
2021/01/31 03:54:49;;;;;;;48.83;29.67;;;;;;;3.28;66.11;98532.09;5114930;28;20023;-79
2021/01/31 03:57:26;;;;;;;49.97;31.53;;;;;;;3.29;65.75;98531.94;5096937;28;20035;-80
2021/01/31 03:59:57;;;;;;;54.30;32.37;;;;;;;2.52;65.66;98434.59;5098098;28;20028;-79
2021/01/31 04:02:31;;;;;;;59.95;35.70;;;;;;;3.29;66.10;98555.44;5113555;28;20028;-79
2021/01/31 04:07:37;;;;;;;60.50;33.93;;;;;;;3.24;65.65;98544.63;5061840;28;20067;-79
2021/01/31 04:10:05;;;;;;;59.13;33.93;;;;;;;3.26;66.21;98536.66;5054949;28;20029;-77
2021/01/31 04:12:41;;;;;;;57.20;34.43;;;;;;;3.22;66.07;98532.72;5041285;28;20344;-78
2021/01/31 04:15:21;;;;;;;56.77;34.43;;;;;;;3.19;66.00;98537.28;5037737;22;20052;-78
2021/01/31 04:17:49;;;;;;;60.30;35.10;;;;;;;2.90;66.13;98508.09;5082453;28;20185;-78
2021/01/31 04:22:51;;;;;;;55.97;34.10;;;;;;;3.15;66.27;98569.88;4894785;26;20048;-77
2021/01/31 04:25:21;;;;;;;55.67;34.23;;;;;;;2.59;66.29;98473.06;5098575;22;20048;-78
2021/01/31 04:27:49;;;;;;;52.23;32.43;;;;;;;3.13;66.27;98543.13;5120229;28;20410;-78
2021/01/31 04:30:16;;;;;;;56.33;34.07;;;;;;;2.73;66.17;98486.34;5120001;28;20434;-79
2021/01/31 04:32:45;;;;;;;56.13;34.73;;;;;;;3.08;66.14;98541.94;5113940;22;20047;-78
2021/01/31 04:35:13;;;;;;;56.13;36.33;;;;;;;3.10;66.56;98566.09;5085032;28;20052;-77
2021/01/31 04:37:41;;;;;;;58.63;35.93;;;;;;;3.13;66.54;98560.56;5090918;28;20036;-78
2021/01/31 04:40:11;;;;;;;57.57;36.50;;;;;;;3.12;65.99;98559.75;5108010;22;20060;-78
2021/01/31 04:42:38;;;;;;;57.07;34.93;;;;;;;3.10;66.62;98555.66;5099409;28;20401;-78
2021/01/31 04:45:08;;;;;;;61.20;36.23;;;;;;;3.08;66.27;98568.03;5107067;22;20052;-78
2021/01/31 04:47:44;;;;;;;59.80;35.77;;;;;;;3.07;66.54;98567.22;5099775;28;20318;-78
2021/01/31 04:50:24;;;;;;;58.53;34.03;;;;;;;3.05;66.65;98556.13;5100338;28;20024;-78
2021/01/31 04:53:08;;;;;;;58.73;34.73;;;;;;;3.04;66.42;98551.88;5107341;22;20072;-78
2021/01/31 04:56:02;;;;;;;57.03;34.03;;;;;;;2.83;66.22;98514.91;5099708;28;20473;-79
2021/01/31 04:58:44;;;;;;;58.67;33.37;;;;;;;2.81;66.60;98504.63;5071094;22;20048;-78
2021/01/31 05:01:26;;;;;;;57.23;33.97;;;;;;;3.09;66.74;98546.19;5106331;22;20059;-78
2021/01/31 05:04:03;;;;;;;63.03;37.58;;;;;;;3.09;66.64;98536.59;5106686;22;20472;-78
2021/01/31 05:06:36;;;;;;;68.07;41.90;;;;;;;3.03;66.21;98521.56;5099390;28;20430;-78
2021/01/31 05:09:04;;;;;;;70.00;41.93;;;;;;;3.15;66.62;98535.13;5099056;28;20028;-79
2021/01/31 05:11:39;;;;;;;80.87;45.63;;;;;;;2.94;66.58;98492.97;5079409;28;20099;-78
2021/01/31 05:14:04;;;;;;;74.70;43.47;;;;;;;3.19;66.63;98520.81;5083163;28;20104;-78
2021/01/31 05:16:35;;;;;;;94.13;51.00;;;;;;;3.22;66.39;98519.69;5082836;28;20052;-79
2021/01/31 05:19:09;;;;;;;72.63;44.20;;;;;;;2.93;66.31;98473.06;5106331;22;20052;-77
2021/01/31 05:21:35;;;;;;;75.30;43.17;;;;;;;3.24;66.53;98512.53;5104635;28;20035;-78
2021/01/31 05:24:10;;;;;;;75.80;41.53;;;;;;;3.23;66.10;98510.88;5104989;28;20024;-78
2021/01/31 05:26:41;;;;;;;84.00;46.47;;;;;;;3.18;66.49;98512.19;5087084;28;20031;-78
2021/01/31 05:29:18;;;;;;;88.87;51.03;;;;;;;3.19;66.13;98502.56;5094415;22;20131;-78
2021/01/31 05:31:55;;;;;;;88.03;48.17;;;;;;;3.06;66.26;98492.56;5103690;28;20028;-78
2021/01/31 05:34:53;;;;;;;75.30;41.83;;;;;;;2.99;66.40;98468.09;5103133;28;20035;-78
2021/01/31 05:37:41;;;;;;;72.03;38.90;;;;;;;3.12;66.18;98510.19;5126969;22;20052;-79
2021/01/31 05:40:16;;;;;;;73.97;37.83;;;;;;;3.13;66.63;98526.66;5101359;22;20040;-78
2021/01/31 05:42:44;;;;;;;74.27;38.10;;;;;;;3.12;66.27;98518.00;5117077;22;20032;-79
2021/01/31 05:45:19;;;;;;;74.27;39.50;;;;;;;3.13;66.54;98531.88;5088056;28;20052;-78
2021/01/31 05:47:47;;;;;;;75.53;38.60;;;;;;;3.14;66.21;98542.16;5111890;22;20059;-78
2021/01/31 05:50:38;;;;;;;78.83;40.27;;;;;;;3.15;66.13;98537.75;5112400;22;20040;-78
2021/01/31 05:53:33;;;;;;;94.37;45.97;;;;;;;3.17;66.06;98541.03;5093490;22;20069;-79
2021/01/31 05:56:28;;;;;;;72.60;40.30;;;;;;;3.17;66.08;98539.22;5117992;22;20044;-78
2021/01/31 05:59:23;;;;;;;73.37;41.57;;;;;;;3.15;66.15;98535.97;5117703;22;20449;-78
2021/01/31 06:01:59;;;;;;;72.43;42.00;;;;;;;2.99;66.22;98520.22;5091056;28;20133;-79
2021/01/31 06:04:28;;;;;;;79.80;39.33;;;;;;;2.45;65.77;98435.34;5105425;28;20346;-79
2021/01/31 06:07:25;;;;;;;71.23;43.87;;;;;;;3.11;66.14;98539.84;5105311;28;20089;-79
2021/01/31 06:09:55;;;;;;;80.37;42.57;;;;;;;3.13;66.00;98543.13;5090328;28;20174;-78
2021/01/31 06:12:27;;;;;;;71.53;43.67;;;;;;;3.24;65.83;98564.69;5078322;22;20036;-79
2021/01/31 06:15:21;;;;;;;75.80;44.58;;;;;;;3.06;66.37;98533.47;5109772;22;20051;-79
2021/01/31 06:18:04;;;;;;;80.57;45.27;;;;;;;3.25;66.54;98569.75;5095686;22;20064;-78
2021/01/31 06:20:37;;;;;;;74.97;43.17;;;;;;;3.26;66.68;98553.13;5112470;22;20032;-78
2021/01/31 06:23:05;;;;;;;79.77;47.00;;;;;;;3.09;66.42;98528.75;5104867;28;20028;-78
2021/01/31 06:28:10;;;;;;;81.77;50.87;;;;;;;3.35;66.41;98562.63;5066170;28;20061;-79
2021/01/31 06:31:01;;;;;;;77.40;44.87;;;;;;;3.42;66.19;98553.19;5050965;28;20063;-79
2021/01/31 06:33:30;;;;;;;74.73;46.37;;;;;;;3.32;65.86;98547.28;5077638;22;20032;-78
2021/01/31 06:36:34;;;;;;;87.00;46.50;;;;;;;3.48;66.12;98547.34;5112180;22;20076;-78
2021/01/31 06:39:54;;;;;;;67.63;38.53;;;;;;;3.52;65.80;98553.06;5081438;22;20080;-78
2021/01/31 06:42:55;;;;;;;44.47;26.67;;;;;;;3.52;66.09;98560.91;5121486;22;20115;-79
2021/01/31 06:45:30;;;;;;;46.07;24.53;;;;;;;3.58;65.97;98570.72;5090038;22;20044;-79
2021/01/31 06:48:20;;;;;;;33.13;19.00;;;;;;;3.61;66.22;98567.78;5091972;23;20054;-78
2021/01/31 06:51:24;;;;;;;33.93;20.27;;;;;;;3.33;66.34;98517.63;5082839;22;20048;-78
2021/01/31 06:54:14;;;;;;;30.10;18.93;;;;;;;3.74;65.82;98580.41;5114279;22;20048;-79
2021/01/31 06:59:52;;;;;;;26.43;16.63;;;;;;;3.87;65.96;98582.59;5113482;22;20044;-77
2021/01/31 07:02:39;;;;;;;32.73;18.33;;;;;;;3.97;65.94;98584.06;5114400;22;20040;-78
2021/01/31 07:05:27;;;;;;;29.57;17.20;;;;;;;4.02;65.88;98584.41;5105771;28;20035;-78
2021/01/31 07:08:03;;;;;;;24.27;15.67;;;;;;;4.11;65.63;98583.44;5110121;22;20060;-78
2021/01/31 07:10:46;;;;;;;30.50;19.47;;;;;;;4.16;65.96;98577.75;5104748;22;20044;-78
2021/01/31 07:13:34;;;;;;;29.80;19.17;;;;;;;4.18;66.49;98586.25;5164221;22;20157;-79
2021/01/31 07:16:14;;;;;;;31.20;19.03;;;;;;;4.25;66.24;98581.19;5113554;22;20054;-78
2021/01/31 07:18:51;;;;;;;28.07;16.07;;;;;;;4.07;66.17;98542.16;5121485;22;20052;-77
2021/01/31 07:21:21;;;;;;;27.13;15.13;;;;;;;4.40;66.12;98587.41;5095736;22;20028;-77
2021/01/31 07:27:00;;;;;;;22.47;13.97;;;;;;;4.54;66.24;98570.28;5113046;22;20113;-79
2021/01/31 07:29:37;;;;;;;22.17;13.20;;;;;;;3.91;66.33;98463.78;5109721;22;20494;-78
2021/01/31 07:32:16;;;;;;;20.60;11.80;;;;;;;4.63;66.70;98570.13;5103389;22;20044;-79
2021/01/31 07:34:53;;;;;;;17.07;11.33;;;;;;;4.66;66.48;98566.38;5120518;22;20404;-79
2021/01/31 07:37:37;;;;;;;19.03;11.87;;;;;;;4.74;66.50;98582.06;5119862;22;20063;-78
2021/01/31 07:40:25;;;;;;;16.70;10.53;;;;;;;4.79;66.32;98569.31;5092510;22;20139;-78
2021/01/31 07:42:55;;;;;;;26.43;11.53;;;;;;;4.42;66.22;98513.09;5107286;28;20031;-79
2021/01/31 07:45:26;;;;;;;20.07;10.63;;;;;;;4.89;66.63;98567.31;5120435;22;20378;-78
2021/01/31 07:48:31;;;;;;;18.45;12.13;;;;;;;4.93;66.58;98558.16;5110645;22;20048;-78
2021/01/31 07:50:58;;;;;;;15.30;11.77;;;;;;;5.02;66.53;98561.59;5130950;22;20063;-78
2021/01/31 07:53:32;;;;;;;16.63;11.97;;;;;;;5.07;67.03;98569.75;5122724;22;20105;-79
2021/01/31 07:56:28;;;;;;;17.77;11.50;;;;;;;4.61;66.75;98482.38;5107534;22;20028;-77
2021/01/31 07:58:57;;;;;;;16.80;11.97;;;;;;;5.20;66.77;98583.16;5081303;28;20045;-78
2021/01/31 08:01:40;;;;;;;14.90;11.63;;;;;;;5.27;67.01;98583.31;5093644;22;20064;-78
2021/01/31 08:06:56;;;;;;;19.34;13.24;;;;;;;5.40;67.00;98586.22;5118147;22;20110;-79
2021/01/31 08:09:30;;;;;;;20.10;13.47;;;;;;;5.47;66.43;98578.50;5117786;22;20052;-79
2021/01/31 08:12:04;;;;;;;20.47;14.87;;;;;;;5.53;66.30;98580.44;5106867;22;20041;-79
2021/01/31 08:15:08;;;;;;;24.80;15.77;;;;;;;5.61;66.64;98580.41;5100361;22;20109;-79
2021/01/31 08:17:42;;;;;;;;;;;;;;;5.58;67.38;98584.19;5114994;22;20463;-79
2021/01/31 08:20:18;;;;;;;38.73;24.27;;;;;;;5.70;66.53;98590.66;5114375;22;19976;-78
2021/01/31 08:22:45;;;;;;;29.53;22.50;;;;;;;5.56;65.96;98559.97;5108582;28;20035;-78
2021/01/31 08:25:13;;;;;;;42.97;31.03;;;;;;;5.88;66.07;98594.84;5104840;22;20040;-80
2021/01/31 08:27:50;;;;;;;62.33;39.80;;;;;;;5.97;66.19;98583.41;5125234;28;20081;-79
2021/01/31 08:30:34;;;;;;;57.47;40.67;;;;;;;6.06;66.63;98582.38;5121141;28;20034;-81
2021/01/31 08:33:03;;;;;;;56.07;36.43;;;;;;;6.14;65.82;98584.94;5119566;28;20114;-82
2021/01/31 08:35:45;;;;;;;55.10;38.53;;;;;;;6.24;65.77;98593.41;5116909;28;20037;-82
2021/01/31 08:38:24;;;;;;;52.92;37.80;;;;;;;6.17;65.87;98574.09;5116626;28;20024;-80
2021/01/31 08:40:58;;;;;;;51.97;34.23;;;;;;;6.42;66.25;98603.59;5115257;28;20032;-83
2021/01/31 08:43:47;;;;;;;53.63;34.90;;;;;;;6.55;66.41;98610.88;5115577;28;20023;-83
2021/01/31 08:46:27;;;;;;;61.80;41.90;;;;;;;6.65;66.04;98606.22;5097290;28;20023;-82
2021/01/31 08:48:52;;;;;;;72.47;48.27;;;;;;;6.74;65.71;98610.44;5119250;28;20032;-81
2021/01/31 08:51:30;;;;;;;63.93;43.57;;;;;;;6.04;65.57;98490.84;5119094;28;20016;-82
2021/01/31 08:54:13;;;;;;;63.00;44.27;;;;;;;6.96;65.71;98612.22;5119119;28;20023;-81
2021/01/31 08:56:56;;;;;;;69.47;47.73;;;;;;;6.53;65.60;98524.53;5118960;28;20023;-79
2021/01/31 08:59:21;;;;;;;;;;;;;;;7.12;65.91;98611.25;5119536;28;20427;-80
2021/01/31 09:01:51;;;;;;;63.20;41.93;;;;;;;7.27;64.95;98613.88;5122103;28;19907;-80
2021/01/31 09:04:19;;;;;;;56.17;36.67;;;;;;;6.55;64.65;98475.31;5124639;28;20031;-77
2021/01/31 09:06:47;;;;;;;50.53;37.23;;;;;;;7.48;64.23;98602.69;5094071;28;20028;-84
2021/01/31 09:09:27;;;;;;;57.30;40.03;;;;;;;6.89;64.53;98508.97;5080756;28;20065;-81
2021/01/31 09:12:19;;;;;;;53.80;34.10;;;;;;;7.16;64.39;98532.94;5097576;28;20435;-81
2021/01/31 09:14:44;;;;;;;80.73;32.97;;;;;;;7.75;63.86;98617.81;5095455;28;20040;-78
2021/01/31 09:17:25;;;;;;;33.17;22.73;;;;;;;7.54;63.75;98575.72;5098505;28;20020;-84
2021/01/31 09:20:27;;;;;;;31.20;19.67;;;;;;;7.95;64.07;98618.06;5080190;28;20016;-78
2021/01/31 09:22:57;;;;;;;24.35;17.15;;;;;;;8.01;63.92;98617.31;5097551;28;20039;-77
2021/01/31 09:25:24;;;;;;;24.70;14.73;;;;;;;7.97;63.62;98611.63;5097228;28;20111;-80
2021/01/31 09:28:14;;;;;;;49.40;20.90;;;;;;;8.09;63.02;98621.66;5079750;28;20085;-78
2021/01/31 09:30:40;;;;;;;42.80;18.87;;;;;;;8.09;63.17;98640.88;5097931;28;20028;-80
2021/01/31 09:33:14;;;;;;;22.70;14.37;;;;;;;8.00;62.89;98620.94;5097888;28;20026;-82
2021/01/31 09:35:40;;;;;;;43.07;16.90;;;;;;;8.11;62.41;98622.28;5098157;28;20028;-79
2021/01/31 09:38:20;;;;;;;29.50;17.97;;;;;;;8.14;62.96;98627.19;5097734;28;20023;-80
2021/01/31 09:40:48;;;;;;;25.57;16.73;;;;;;;8.20;62.65;98632.53;5097227;28;20453;-82
2021/01/31 09:43:18;;;;;;;26.03;15.90;;;;;;;8.10;62.10;98610.16;5099113;28;20036;-81
2021/01/31 09:45:48;;;;;;;24.83;16.55;;;;;;;8.09;62.36;98598.81;5099427;28;20032;-80
2021/01/31 09:48:17;;;;;;;21.20;14.43;;;;;;;8.34;61.71;98619.56;5098221;28;20067;-82
2021/01/31 09:50:45;;;;;;;18.47;13.67;;;;;;;8.30;61.89;98616.47;5079813;28;20024;-82
2021/01/31 09:53:38;;;;;;;19.42;14.30;;;;;;;8.43;61.98;98621.06;5079963;28;20388;-81
2021/01/31 09:56:09;;;;;;;21.13;15.33;;;;;;;8.20;61.72;98563.38;5096221;28;20043;-80
2021/01/31 09:58:45;;;;;;;21.38;15.13;;;;;;;8.58;61.43;98612.13;5078383;28;20066;-79
2021/01/31 10:01:23;;;;;;;18.80;14.82;;;;;;;8.38;61.30;98589.25;5097710;28;20460;-78
2021/01/31 10:04:00;;;;;;;21.08;14.80;;;;;;;8.67;61.69;98614.63;5079658;28;20070;-79
2021/01/31 10:06:31;;;;;;;21.97;15.67;;;;;;;8.63;61.20;98598.41;5097851;28;20405;-78
2021/01/31 10:09:01;;;;;;;21.50;15.73;;;;;;;8.82;61.36;98605.66;5098286;28;20055;-77
2021/01/31 10:11:41;;;;;;;27.20;18.90;;;;;;;8.91;61.32;98607.16;5095487;28;20491;-79
2021/01/31 10:14:10;;;;;;;24.37;17.43;;;;;;;8.96;60.71;98605.81;5080771;28;20449;-76
2021/01/31 10:16:39;;;;;;;22.73;16.10;;;;;;;8.25;60.71;98496.06;5096430;28;20061;-83
2021/01/31 10:19:23;;;;;;;24.40;17.33;;;;;;;8.83;60.48;98580.97;5097304;28;20149;-81
2021/01/31 10:21:56;;;;;;;24.48;16.60;;;;;;;9.02;60.81;98608.47;5079119;28;20119;-76
2021/01/31 10:24:26;;;;;;;24.60;17.40;;;;;;;9.18;60.60;98610.03;5079313;28;20063;-76
2021/01/31 10:27:34;;;;;;;24.25;17.35;;;;;;;9.19;60.43;98601.94;5097178;28;20116;-77
2021/01/31 10:30:27;;;;;;;26.35;18.73;;;;;;;9.28;60.45;98592.06;5096813;28;20032;-80
2021/01/31 10:32:54;;;;;;;32.40;21.73;;;;;;;9.05;60.71;98554.63;5095825;28;20028;-83
2021/01/31 10:35:29;;;;;;;30.33;20.80;;;;;;;9.37;60.47;98584.81;5078924;28;20499;-76
2021/01/31 10:37:55;;;;;;;27.13;18.05;;;;;;;8.90;60.54;98494.16;5096532;28;20071;-81
2021/01/31 10:40:21;;;;;;;25.95;18.65;;;;;;;9.49;60.63;98565.63;5078558;28;20057;-76
2021/01/31 10:42:46;;;;;;;36.63;21.98;;;;;;;9.52;60.22;98570.50;5096294;28;20032;-77
2021/01/31 10:45:16;;;;;;;36.05;20.73;;;;;;;9.10;60.14;98502.19;5078732;28;20039;-76
2021/01/31 10:47:43;;;;;;;25.98;18.02;;;;;;;9.44;60.42;98548.78;5096732;28;20024;-76
2021/01/31 10:50:09;;;;;;;27.05;18.20;;;;;;;9.47;60.42;98562.38;5095507;28;20063;-78
2021/01/31 10:52:35;;;;;;;37.08;25.98;;;;;;;9.17;60.21;98516.22;5096310;28;20099;-76
2021/01/31 10:55:01;;;;;;;43.17;26.65;;;;;;;9.17;60.82;98539.91;5096353;28;20491;-75
2021/01/31 10:57:28;;;;;;;43.38;29.83;;;;;;;8.93;60.78;98483.28;5096392;28;20024;-78
2021/01/31 10:59:54;;;;;;;37.40;26.13;;;;;;;8.55;60.90;98430.97;5096029;28;20085;-77
2021/01/31 11:02:19;;;;;;;30.63;21.42;;;;;;;9.02;61.10;98529.50;5096149;28;20024;-77
2021/01/31 11:04:45;;;;;;;26.52;18.80;;;;;;;8.95;61.40;98510.22;5096076;28;20103;-83
2021/01/31 11:07:10;;;;;;;27.85;19.20;;;;;;;8.79;61.61;98477.06;5096158;28;20043;-87
2021/01/31 11:09:36;;;;;;;32.70;21.25;;;;;;;8.64;61.52;98481.63;5095654;28;20032;-75
2021/01/31 11:12:02;;;;;;;44.03;27.38;;;;;;;8.64;61.97;98472.94;5095950;28;20434;-85
2021/01/31 11:14:28;;;;;;;45.67;30.25;;;;;;;8.72;61.80;98493.84;5095994;28;20024;-82
2021/01/31 11:16:54;;;;;;;42.92;29.00;;;;;;;8.95;61.97;98538.34;5099008;28;20024;-81
2021/01/31 11:19:20;;;;;;;46.67;29.00;;;;;;;8.70;62.13;98512.44;5093250;28;20031;-83
2021/01/31 11:21:45;;;;;;;45.13;28.33;;;;;;;8.77;62.13;98528.28;5078719;28;20414;-85
2021/01/31 11:24:11;;;;;;;38.90;24.20;;;;;;;8.74;62.60;98540.00;5096240;28;20024;-81
2021/01/31 11:26:36;;;;;;;36.30;24.48;;;;;;;8.55;62.56;98509.09;5077872;28;20039;-80
2021/01/31 11:29:02;;;;;;;31.27;20.48;;;;;;;8.69;62.51;98539.75;5095597;28;20338;-84
2021/01/31 11:31:27;;;;;;;32.58;21.58;;;;;;;8.39;63.00;98472.53;5077889;28;20055;-85
2021/01/31 11:33:55;;;;;;;29.80;21.15;;;;;;;8.18;63.02;98444.41;5077847;28;20511;-84
2021/01/31 11:36:21;;;;;;;25.80;16.42;;;;;;;8.63;63.13;98508.94;5095894;28;20031;-83
2021/01/31 11:38:47;;;;;;;24.83;16.42;;;;;;;7.99;63.21;98393.28;5095575;28;20351;-85
2021/01/31 11:41:13;;;;;;;14.90;9.75;;;;;;;7.72;63.50;98328.38;5095664;28;20398;-82
2021/01/31 11:43:38;;;;;;;7.95;5.03;;;;;;;9.05;63.85;98494.06;5095336;28;20032;-81
2021/01/31 11:46:04;;;;;;;6.43;3.72;;;;;;;9.23;63.50;98489.91;5094486;28;20031;-83
2021/01/31 11:48:29;;;;;;;5.78;3.85;;;;;;;9.55;63.55;98511.34;5095364;28;20028;-77
2021/01/31 11:50:55;;;;;;;9.98;4.38;;;;;;;9.15;64.06;98421.63;5095395;28;20060;-81
2021/01/31 11:53:20;;;;;;;5.65;2.92;;;;;;;9.75;64.27;98498.25;5077330;28;20032;-79
2021/01/31 11:55:46;;;;;;;5.70;4.13;;;;;;;9.90;63.77;98488.38;5095234;28;20035;-78
2021/01/31 11:58:11;;;;;;;5.13;3.60;;;;;;;9.63;63.90;98428.66;5095172;28;20024;-77
2021/01/31 12:00:37;;;;;;;7.47;4.50;;;;;;;10.02;63.83;98480.69;5095250;28;20024;-80
2021/01/31 12:03:04;;;;;;;12.52;6.32;;;;;;;9.66;63.88;98417.72;5077273;28;20027;-78
2021/01/31 12:05:30;;;;;;;12.75;6.85;;;;;;;10.04;63.92;98463.63;5095327;28;20020;-78
2021/01/31 12:07:55;;;;;;;11.10;6.75;;;;;;;10.24;64.23;98486.63;5094791;28;20039;-78
2021/01/31 12:10:21;;;;;;;12.10;8.10;;;;;;;10.25;64.13;98491.69;5077250;28;20028;-80
2021/01/31 12:12:46;;;;;;;15.48;9.48;;;;;;;10.26;64.08;98482.78;5095126;28;20101;-79
2021/01/31 12:15:15;;;;;;;11.98;6.97;;;;;;;9.93;64.21;98424.69;5095200;28;20422;-80
2021/01/31 12:17:41;;;;;;;22.75;11.23;;;;;;;9.86;64.10;98413.31;5094852;28;20307;-77
2021/01/31 12:20:10;;;;;;;17.85;11.18;;;;;;;9.81;64.70;98403.38;5095265;28;20085;-77
2021/01/31 12:22:35;;;;;;;19.90;11.77;;;;;;;10.29;64.26;98481.56;5076260;28;20107;-80
2021/01/31 12:25:01;;;;;;;19.42;11.10;;;;;;;10.32;64.33;98489.88;5095177;28;20066;-82
2021/01/31 12:27:28;;;;;;;14.98;7.90;;;;;;;10.29;64.79;98471.00;5106172;28;20060;-81
2021/01/31 12:29:54;;;;;;;20.80;10.38;;;;;;;10.40;65.06;98492.34;5078408;28;20055;-79